»·PEaware :: ASA1809 KSFO-KSEA

ASA1809 :: KSFO-KSEA

FLIGHT INFORMATION

Flight Status: Arrived
Operator:
Alaska Airlines
More flights by this operator :: More flights under this callsign
Pilot: Jake W. (27785)
Aircraft: BOEING 737-800
(B738)
More flights by this aircraft type
Origin: KSFO San Francisco Intl
United States
Destination: KSEA Seattle-Tacoma Intl
United States
More flights between these airports :: More routes between these airports
Route: TRUKN2 DEDHD RBL LMT HAWKZ7
File this flight plan on PilotEdge
Remarks: RMK / SIMBRIEF
Altitude:
(Current/Filed)
32,000ft
Speed:
(Current/Filed)
445kts
Departed: 30-Jan-20 01:24 PM
Arrived: 30-Jan-20 03:11 PM
Distance/Time
Traveled:
590nm/1:46
Distance/Time
To Go:
Arrived

Flight Plot

Page will automatically refresh every two minutes.


Map Options




Map Legend


Flown Route
Filed Route
Departure Airport
Arrival Airport
Navaid (VOR, NDB)
Fix

Horizontal Profiles

Position Reports

Time Latitude Longitude Heading Altitude Ground
Speed
30-Jan-20 13:02 37.617861 -122.380618 257 24ft 0kts
30-Jan-20 13:03 37.617861 -122.380618 257 24ft 0kts
30-Jan-20 13:04 37.617861 -122.380618 257 23ft 0kts
30-Jan-20 13:05 37.617861 -122.380618 257 23ft 0kts
30-Jan-20 13:06 37.617861 -122.380618 257 23ft 0kts
30-Jan-20 13:07 37.617861 -122.380618 257 23ft 0kts
30-Jan-20 13:08 37.617861 -122.380618 257 23ft 0kts
30-Jan-20 13:09 37.617861 -122.380618 257 23ft 0kts
30-Jan-20 13:10 37.617861 -122.380618 257 23ft 0kts
30-Jan-20 13:11 37.617861 -122.380618 257 23ft 0kts
30-Jan-20 13:12 37.617861 -122.380618 257 23ft 0kts
30-Jan-20 13:13 37.617861 -122.380618 257 24ft 0kts
30-Jan-20 13:14 37.617861 -122.380618 257 24ft 0kts
30-Jan-20 13:15 37.617930 -122.380228 256 24ft 2kts
30-Jan-20 13:16 37.618395 -122.379839 172 24ft 2kts
30-Jan-20 13:17 37.618619 -122.379955 146 24ft 0kts
30-Jan-20 13:18 37.618619 -122.379955 146 24ft 0kts
30-Jan-20 13:19 37.618226 -122.379677 155 23ft 8kts
30-Jan-20 13:20 37.613594 -122.381658 208 24ft 21kts
30-Jan-20 13:21 37.609271 -122.383788 124 24ft 9kts
30-Jan-20 13:23 37.608937 -122.382265 39 24ft 15kts
30-Jan-20 13:23 37.616520 -122.377194 28 24ft 136kts
30-Jan-20 13:24 37.653562 -122.341076 55 2327ft 199kts
30-Jan-20 13:25 37.687847 -122.271689 54 5083ft 251kts
30-Jan-20 13:26 37.741994 -122.214797 19 8546ft 266kts
30-Jan-20 13:27 37.816313 -122.198320 5 10756ft 279kts
30-Jan-20 13:28 37.898382 -122.184928 4 13398ft 309kts
30-Jan-20 13:29 37.987001 -122.170379 3 15970ft 331kts
30-Jan-20 13:30 38.081116 -122.154892 2 18357ft 350kts
30-Jan-20 13:31 38.178120 -122.138884 3 20744ft 361kts
30-Jan-20 13:32 38.279604 -122.122085 3 22922ft 372kts
30-Jan-20 13:33 38.383503 -122.115830 353 24851ft 378kts
30-Jan-20 13:34 38.490160 -122.123349 353 26609ft 387kts
30-Jan-20 13:35 38.598974 -122.130832 353 28177ft 396kts
30-Jan-20 13:36 38.710335 -122.138508 353 29568ft 405kts
30-Jan-20 13:37 38.823618 -122.146314 353 30952ft 410kts
30-Jan-20 13:38 38.936809 -122.154156 352 32288ft 408kts
30-Jan-20 13:39 39.049405 -122.162009 352 32330ft 403kts
30-Jan-20 13:40 39.161263 -122.169824 352 32340ft 405kts
30-Jan-20 13:41 39.273764 -122.177697 352 32339ft 404kts
30-Jan-20 13:42 39.384658 -122.185483 352 32338ft 403kts
30-Jan-20 13:43 39.497049 -122.193394 352 32336ft 404kts
30-Jan-20 13:44 39.608855 -122.201306 352 32336ft 403kts
30-Jan-20 13:45 39.720916 -122.209252 352 32334ft 403kts
30-Jan-20 13:46 39.832650 -122.217192 352 32333ft 402kts
30-Jan-20 13:47 39.943415 -122.225105 352 32332ft 403kts
30-Jan-20 13:48 40.055344 -122.233118 352 32330ft 403kts
30-Jan-20 13:49 40.167632 -122.220157 4 32340ft 413kts
30-Jan-20 13:50 40.280999 -122.192507 4 32345ft 413kts
30-Jan-20 13:51 40.393700 -122.165271 4 32347ft 412kts
30-Jan-20 13:52 40.506908 -122.137847 4 32347ft 414kts
30-Jan-20 13:53 40.619798 -122.110377 4 32347ft 412kts
30-Jan-20 13:54 40.732841 -122.082808 4 32353ft 412kts
30-Jan-20 13:55 40.845487 -122.055219 4 32358ft 413kts
30-Jan-20 13:56 40.958256 -122.027494 4 32356ft 412kts
30-Jan-20 13:57 41.071173 -121.999626 4 32354ft 411kts
30-Jan-20 13:58 41.178266 -121.973134 3 32364ft 407kts
30-Jan-20 13:59 41.290177 -121.945380 4 32361ft 408kts
30-Jan-20 14:00 41.402051 -121.917504 3 32377ft 408kts
30-Jan-20 14:01 41.513422 -121.889661 3 32385ft 407kts
30-Jan-20 14:02 41.624842 -121.861707 3 32384ft 407kts
30-Jan-20 14:03 41.736088 -121.833698 3 32383ft 407kts
30-Jan-20 14:04 41.847403 -121.805572 3 32382ft 407kts
30-Jan-20 14:05 41.958641 -121.777367 3 32381ft 407kts
30-Jan-20 14:06 42.069832 -121.749076 3 32380ft 408kts
30-Jan-20 14:07 42.180222 -121.734545 347 32392ft 394kts
30-Jan-20 14:08 42.288686 -121.758208 345 32389ft 393kts
30-Jan-20 14:09 42.395826 -121.782586 345 32387ft 393kts
30-Jan-20 14:10 42.504004 -121.807273 345 32386ft 393kts
30-Jan-20 14:11 42.611826 -121.831963 345 32384ft 393kts
30-Jan-20 14:12 42.718763 -121.856489 345 32374ft 392kts
30-Jan-20 14:13 42.827080 -121.881461 345 32371ft 391kts
30-Jan-20 14:14 42.934162 -121.906264 345 32372ft 391kts
30-Jan-20 14:15 43.041683 -121.931231 345 32369ft 392kts
30-Jan-20 14:16 43.148394 -121.956105 345 32375ft 393kts
30-Jan-20 14:17 43.256158 -121.981281 345 32369ft 393kts
30-Jan-20 14:18 43.364336 -122.006737 344 32364ft 395kts
30-Jan-20 14:19 43.472722 -122.032428 344 32358ft 395kts
30-Jan-20 14:20 43.579536 -122.057690 344 32353ft 397kts
30-Jan-20 14:21 43.688424 -122.083538 344 32348ft 397kts
30-Jan-20 14:22 43.792641 -122.108362 344 32336ft 397kts
30-Jan-20 14:23 43.906215 -122.135512 344 32327ft 397kts
30-Jan-20 14:24 44.015379 -122.161708 344 32322ft 397kts
30-Jan-20 14:25 44.122691 -122.187555 344 32330ft 397kts
30-Jan-20 14:26 44.229907 -122.213463 344 32330ft 396kts
30-Jan-20 14:27 44.339551 -122.240067 344 32318ft 396kts
30-Jan-20 14:28 44.447782 -122.266427 344 32305ft 396kts
30-Jan-20 14:29 44.556136 -122.292929 344 32298ft 396kts
30-Jan-20 14:30 44.664617 -122.319552 344 32297ft 397kts
30-Jan-20 14:31 44.773014 -122.346235 343 32295ft 396kts
30-Jan-20 14:32 44.881658 -122.373110 343 32294ft 396kts
30-Jan-20 14:33 44.990135 -122.400026 343 32295ft 395kts
30-Jan-20 14:34 45.097174 -122.426711 343 32312ft 395kts
30-Jan-20 14:35 45.201897 -122.452898 342 32326ft 395kts
30-Jan-20 14:36 45.309242 -122.480093 342 32326ft 391kts
30-Jan-20 14:37 45.416589 -122.507231 342 32203ft 395kts
30-Jan-20 14:38 45.525724 -122.534745 342 29515ft 390kts
30-Jan-20 14:39 45.627339 -122.560569 343 27108ft 375kts
30-Jan-20 14:41 45.728347 -122.586335 344 24738ft 360kts
30-Jan-20 14:42 45.824757 -122.610477 344 24322ft 357kts
30-Jan-20 14:43 45.922139 -122.634526 344 24321ft 355kts
30-Jan-20 14:44 46.019813 -122.658805 343 24328ft 355kts
30-Jan-20 14:45 46.116381 -122.682263 345 24326ft 357kts
30-Jan-20 14:46 46.211419 -122.700570 345 24293ft 356kts
30-Jan-20 14:47 46.309912 -122.720114 345 24278ft 356kts
30-Jan-20 14:48 46.410754 -122.725438 351 24277ft 362kts
30-Jan-20 14:49 46.511034 -122.729029 351 24276ft 362kts
30-Jan-20 14:50 46.609815 -122.732520 351 22322ft 351kts
30-Jan-20 14:51 46.706650 -122.736038 351 20137ft 345kts
30-Jan-20 14:52 46.800273 -122.715295 24 17956ft 364kts
30-Jan-20 14:53 46.882292 -122.624996 33 15790ft 364kts
30-Jan-20 14:54 46.961538 -122.551624 12 15006ft 318kts
30-Jan-20 14:55 47.044901 -122.515215 11 13621ft 314kts
30-Jan-20 14:56 47.129618 -122.490907 1 11947ft 314kts
30-Jan-20 14:57 47.207622 -122.477106 2 10428ft 315kts
30-Jan-20 14:58 47.292098 -122.464338 4 9109ft 305kts
30-Jan-20 14:59 47.372699 -122.454552 357 7898ft 272kts
30-Jan-20 15:00 47.445545 -122.455196 357 6624ft 255kts
30-Jan-20 15:01 47.512768 -122.455231 357 6027ft 229kts
30-Jan-20 15:01 47.567001 -122.454693 359 6002ft 242kts
30-Jan-20 15:03 47.646465 -122.454134 359 4911ft 238kts
30-Jan-20 15:03 47.689226 -122.418087 74 4048ft 222kts
30-Jan-20 15:05 47.665928 -122.335670 144 3369ft 207kts
30-Jan-20 15:05 47.624012 -122.310827 170 2999ft 176kts
30-Jan-20 15:07 47.567568 -122.310181 179 2505ft 177kts
30-Jan-20 15:07 47.528642 -122.310637 180 1737ft 155kts
30-Jan-20 15:08 47.491100 -122.310749 180 1017ft 134kts
30-Jan-20 15:09 47.455579 -122.311104 180 444ft 89kts
30-Jan-20 15:10 47.446429 -122.309184 144 444ft 16kts
30-Jan-20 15:11 47.447531 -122.306081 46 444ft 10kts
30-Jan-20 15:12 47.448583 -122.303987 39 444ft 0kts
30-Jan-20 15:13 47.448583 -122.303987 39 444ft 0kts

Navigation Log

Ident Type
Flight plan parsing failed, navigation log unavailable